sensor_id;sensor_type;location;lat;lon;timestamp;P1;durP1;ratioP1;P2;durP2;ratioP2
66402;SDS011;53212;52.112;5.144;2022-12-18T00:01:37;46.70;;;27.30;;
66402;SDS011;53212;52.112;5.144;2022-12-18T00:04:04;48.70;;;28.60;;
66402;SDS011;53212;52.112;5.144;2022-12-18T00:06:31;55.10;;;29.80;;
66402;SDS011;53212;52.112;5.144;2022-12-18T00:09:01;51.70;;;29.40;;
66402;SDS011;53212;52.112;5.144;2022-12-18T00:11:29;52.50;;;30.20;;
66402;SDS011;53212;52.112;5.144;2022-12-18T00:13:57;54.90;;;30.50;;
66402;SDS011;53212;52.112;5.144;2022-12-18T00:16:24;55.90;;;31.80;;
66402;SDS011;53212;52.112;5.144;2022-12-18T00:18:54;53.80;;;30.50;;
66402;SDS011;53212;52.112;5.144;2022-12-18T00:21:20;54.50;;;30.00;;
66402;SDS011;53212;52.112;5.144;2022-12-18T00:23:47;54.20;;;31.00;;
66402;SDS011;53212;52.112;5.144;2022-12-18T00:26:16;54.50;;;29.30;;
66402;SDS011;53212;52.112;5.144;2022-12-18T00:28:44;56.50;;;33.30;;
66402;SDS011;53212;52.112;5.144;2022-12-18T00:31:12;53.70;;;31.30;;
66402;SDS011;53212;52.112;5.144;2022-12-18T00:33:40;52.80;;;30.00;;
66402;SDS011;53212;52.112;5.144;2022-12-18T00:36:11;53.70;;;29.60;;
66402;SDS011;53212;52.112;5.144;2022-12-18T00:38:39;52.90;;;30.30;;
66402;SDS011;53212;52.112;5.144;2022-12-18T00:41:06;52.50;;;30.30;;
66402;SDS011;53212;52.112;5.144;2022-12-18T00:43:33;51.00;;;30.10;;
66402;SDS011;53212;52.112;5.144;2022-12-18T00:45:59;54.00;;;31.20;;
66402;SDS011;53212;52.112;5.144;2022-12-18T00:48:25;60.10;;;33.80;;
66402;SDS011;53212;52.112;5.144;2022-12-18T00:50:50;53.90;;;31.60;;
66402;SDS011;53212;52.112;5.144;2022-12-18T00:53:16;59.20;;;33.50;;
66402;SDS011;53212;52.112;5.144;2022-12-18T00:55:43;52.70;;;30.60;;
66402;SDS011;53212;52.112;5.144;2022-12-18T00:58:10;53.40;;;32.60;;
66402;SDS011;53212;52.112;5.144;2022-12-18T01:00:37;52.60;;;30.60;;
66402;SDS011;53212;52.112;5.144;2022-12-18T01:03:04;55.80;;;31.50;;
66402;SDS011;53212;52.112;5.144;2022-12-18T01:05:30;51.30;;;30.00;;
66402;SDS011;53212;52.112;5.144;2022-12-18T01:07:57;52.80;;;30.90;;
66402;SDS011;53212;52.112;5.144;2022-12-18T01:10:23;54.50;;;31.60;;
66402;SDS011;53212;52.112;5.144;2022-12-18T01:12:49;52.40;;;31.30;;
66402;SDS011;53212;52.112;5.144;2022-12-18T01:15:15;53.50;;;32.00;;
66402;SDS011;53212;52.112;5.144;2022-12-18T01:17:41;57.50;;;33.70;;
66402;SDS011;53212;52.112;5.144;2022-12-18T01:20:08;54.80;;;32.80;;
66402;SDS011;53212;52.112;5.144;2022-12-18T01:22:35;58.70;;;33.20;;
66402;SDS011;53212;52.112;5.144;2022-12-18T01:25:02;58.40;;;33.50;;
66402;SDS011;53212;52.112;5.144;2022-12-18T01:27:28;54.10;;;31.70;;
66402;SDS011;53212;52.112;5.144;2022-12-18T01:29:53;55.20;;;31.30;;
66402;SDS011;53212;52.112;5.144;2022-12-18T01:32:19;60.70;;;32.90;;
66402;SDS011;53212;52.112;5.144;2022-12-18T01:34:45;55.30;;;30.50;;
66402;SDS011;53212;52.112;5.144;2022-12-18T01:37:10;61.00;;;33.60;;
66402;SDS011;53212;52.112;5.144;2022-12-18T01:39:36;60.30;;;33.10;;
66402;SDS011;53212;52.112;5.144;2022-12-18T01:42:11;59.00;;;33.60;;
66402;SDS011;53212;52.112;5.144;2022-12-18T01:45:09;58.80;;;33.50;;
66402;SDS011;53212;52.112;5.144;2022-12-18T01:48:06;56.50;;;32.00;;
66402;SDS011;53212;52.112;5.144;2022-12-18T01:50:37;54.00;;;30.30;;
66402;SDS011;53212;52.112;5.144;2022-12-18T01:55:53;58.40;;;31.50;;
66402;SDS011;53212;52.112;5.144;2022-12-18T01:58:24;54.10;;;32.40;;
66402;SDS011;53212;52.112;5.144;2022-12-18T02:01:12;55.80;;;31.50;;
66402;SDS011;53212;52.112;5.144;2022-12-18T02:03:41;54.70;;;31.80;;
66402;SDS011;53212;52.112;5.144;2022-12-18T02:06:19;54.00;;;30.60;;
66402;SDS011;53212;52.112;5.144;2022-12-18T02:08:58;59.20;;;33.20;;
66402;SDS011;53212;52.112;5.144;2022-12-18T02:23:24;56.30;;;31.80;;
66402;SDS011;53212;52.112;5.144;2022-12-18T02:26:30;58.00;;;31.90;;
66402;SDS011;53212;52.112;5.144;2022-12-18T02:29:13;57.70;;;34.10;;
66402;SDS011;53212;52.112;5.144;2022-12-18T02:32:08;55.90;;;30.40;;
66402;SDS011;53212;52.112;5.144;2022-12-18T02:34:39;56.50;;;31.90;;
66402;SDS011;53212;52.112;5.144;2022-12-18T02:37:11;59.00;;;32.70;;
66402;SDS011;53212;52.112;5.144;2022-12-18T02:39:41;51.70;;;30.20;;
66402;SDS011;53212;52.112;5.144;2022-12-18T02:42:09;56.50;;;30.80;;
66402;SDS011;53212;52.112;5.144;2022-12-18T02:44:42;57.90;;;32.00;;
66402;SDS011;53212;52.112;5.144;2022-12-18T02:47:10;56.30;;;33.20;;
66402;SDS011;53212;52.112;5.144;2022-12-18T02:52:34;56.00;;;31.70;;
66402;SDS011;53212;52.112;5.144;2022-12-18T02:55:15;52.60;;;29.70;;
66402;SDS011;53212;52.112;5.144;2022-12-18T02:57:56;54.50;;;30.20;;
66402;SDS011;53212;52.112;5.144;2022-12-18T03:03:33;52.80;;;30.90;;
66402;SDS011;53212;52.112;5.144;2022-12-18T03:06:07;52.20;;;29.70;;
66402;SDS011;53212;52.112;5.144;2022-12-18T03:08:38;60.40;;;32.70;;
66402;SDS011;53212;52.112;5.144;2022-12-18T03:11:12;59.50;;;33.20;;
66402;SDS011;53212;52.112;5.144;2022-12-18T03:13:43;56.80;;;32.40;;
66402;SDS011;53212;52.112;5.144;2022-12-18T03:16:14;55.50;;;30.80;;
66402;SDS011;53212;52.112;5.144;2022-12-18T03:21:28;54.10;;;29.80;;
66402;SDS011;53212;52.112;5.144;2022-12-18T03:23:59;54.00;;;28.80;;
66402;SDS011;53212;52.112;5.144;2022-12-18T03:26:26;54.00;;;30.80;;
66402;SDS011;53212;52.112;5.144;2022-12-18T03:28:57;56.40;;;30.10;;
66402;SDS011;53212;52.112;5.144;2022-12-18T03:31:27;53.60;;;30.30;;
66402;SDS011;53212;52.112;5.144;2022-12-18T03:33:58;52.30;;;30.30;;
66402;SDS011;53212;52.112;5.144;2022-12-18T03:36:25;56.00;;;30.80;;
66402;SDS011;53212;52.112;5.144;2022-12-18T03:38:52;54.60;;;32.00;;
66402;SDS011;53212;52.112;5.144;2022-12-18T03:41:24;53.50;;;29.10;;
66402;SDS011;53212;52.112;5.144;2022-12-18T03:44:18;55.60;;;29.70;;
66402;SDS011;53212;52.112;5.144;2022-12-18T03:47:15;50.60;;;30.30;;
66402;SDS011;53212;52.112;5.144;2022-12-18T03:52:37;49.00;;;28.60;;
66402;SDS011;53212;52.112;5.144;2022-12-18T03:55:09;53.50;;;29.40;;
66402;SDS011;53212;52.112;5.144;2022-12-18T03:57:36;54.60;;;30.90;;
66402;SDS011;53212;52.112;5.144;2022-12-18T04:00:06;55.00;;;31.80;;
66402;SDS011;53212;52.112;5.144;2022-12-18T04:02:34;53.00;;;30.70;;
66402;SDS011;53212;52.112;5.144;2022-12-18T04:05:04;51.70;;;30.10;;
66402;SDS011;53212;52.112;5.144;2022-12-18T04:07:32;53.20;;;30.20;;
66402;SDS011;53212;52.112;5.144;2022-12-18T04:09:59;49.50;;;28.90;;
66402;SDS011;53212;52.112;5.144;2022-12-18T04:12:28;52.80;;;28.90;;
66402;SDS011;53212;52.112;5.144;2022-12-18T04:14:54;50.80;;;29.50;;
66402;SDS011;53212;52.112;5.144;2022-12-18T04:17:20;51.70;;;29.90;;
66402;SDS011;53212;52.112;5.144;2022-12-18T04:19:47;45.70;;;27.50;;
66402;SDS011;53212;52.112;5.144;2022-12-18T04:22:12;45.90;;;26.40;;
66402;SDS011;53212;52.112;5.144;2022-12-18T04:24:38;48.60;;;27.50;;
66402;SDS011;53212;52.112;5.144;2022-12-18T04:27:06;46.70;;;28.40;;
66402;SDS011;53212;52.112;5.144;2022-12-18T04:29:32;44.00;;;27.60;;
66402;SDS011;53212;52.112;5.144;2022-12-18T04:31:58;39.60;;;25.00;;
66402;SDS011;53212;52.112;5.144;2022-12-18T04:34:23;40.60;;;26.00;;
66402;SDS011;53212;52.112;5.144;2022-12-18T04:36:49;42.50;;;26.00;;
66402;SDS011;53212;52.112;5.144;2022-12-18T04:39:14;40.40;;;25.60;;
66402;SDS011;53212;52.112;5.144;2022-12-18T04:41:40;41.10;;;25.30;;
66402;SDS011;53212;52.112;5.144;2022-12-18T04:44:06;39.10;;;25.20;;
66402;SDS011;53212;52.112;5.144;2022-12-18T04:46:31;39.80;;;25.60;;
66402;SDS011;53212;52.112;5.144;2022-12-18T04:48:57;36.50;;;23.90;;
66402;SDS011;53212;52.112;5.144;2022-12-18T04:51:22;39.10;;;24.80;;
66402;SDS011;53212;52.112;5.144;2022-12-18T04:53:48;39.00;;;23.50;;
66402;SDS011;53212;52.112;5.144;2022-12-18T04:56:15;40.70;;;23.70;;
66402;SDS011;53212;52.112;5.144;2022-12-18T04:58:42;39.50;;;24.90;;
66402;SDS011;53212;52.112;5.144;2022-12-18T05:01:09;40.90;;;24.90;;
66402;SDS011;53212;52.112;5.144;2022-12-18T05:03:36;42.00;;;24.30;;
66402;SDS011;53212;52.112;5.144;2022-12-18T05:06:03;39.30;;;23.70;;
66402;SDS011;53212;52.112;5.144;2022-12-18T05:08:29;35.30;;;22.60;;
66402;SDS011;53212;52.112;5.144;2022-12-18T05:11:06;36.50;;;23.90;;
66402;SDS011;53212;52.112;5.144;2022-12-18T05:13:33;36.00;;;22.50;;
66402;SDS011;53212;52.112;5.144;2022-12-18T05:16:00;33.60;;;21.30;;
66402;SDS011;53212;52.112;5.144;2022-12-18T05:18:26;37.40;;;23.60;;
66402;SDS011;53212;52.112;5.144;2022-12-18T05:20:52;33.60;;;22.20;;
66402;SDS011;53212;52.112;5.144;2022-12-18T05:23:19;32.20;;;21.30;;
66402;SDS011;53212;52.112;5.144;2022-12-18T05:25:52;31.30;;;20.30;;
66402;SDS011;53212;52.112;5.144;2022-12-18T05:28:20;29.70;;;19.60;;
66402;SDS011;53212;52.112;5.144;2022-12-18T05:30:51;33.90;;;20.30;;
66402;SDS011;53212;52.112;5.144;2022-12-18T05:33:21;30.20;;;19.60;;
66402;SDS011;53212;52.112;5.144;2022-12-18T05:35:52;32.20;;;19.80;;
66402;SDS011;53212;52.112;5.144;2022-12-18T05:38:20;29.30;;;19.70;;
66402;SDS011;53212;52.112;5.144;2022-12-18T05:40:48;29.90;;;19.80;;
66402;SDS011;53212;52.112;5.144;2022-12-18T05:43:13;28.40;;;17.70;;
66402;SDS011;53212;52.112;5.144;2022-12-18T05:45:39;33.60;;;20.30;;
66402;SDS011;53212;52.112;5.144;2022-12-18T05:48:06;31.50;;;19.80;;
66402;SDS011;53212;52.112;5.144;2022-12-18T05:50:36;30.60;;;19.30;;
66402;SDS011;53212;52.112;5.144;2022-12-18T05:53:03;35.90;;;20.10;;
66402;SDS011;53212;52.112;5.144;2022-12-18T05:55:32;27.10;;;18.70;;
66402;SDS011;53212;52.112;5.144;2022-12-18T05:57:59;27.80;;;17.30;;
66402;SDS011;53212;52.112;5.144;2022-12-18T06:00:24;29.80;;;18.00;;
66402;SDS011;53212;52.112;5.144;2022-12-18T06:02:50;28.00;;;18.60;;
66402;SDS011;53212;52.112;5.144;2022-12-18T06:05:15;28.80;;;17.80;;
66402;SDS011;53212;52.112;5.144;2022-12-18T06:07:41;28.20;;;17.60;;
66402;SDS011;53212;52.112;5.144;2022-12-18T06:10:06;27.20;;;18.10;;
66402;SDS011;53212;52.112;5.144;2022-12-18T06:12:32;27.50;;;17.20;;
66402;SDS011;53212;52.112;5.144;2022-12-18T06:14:59;25.70;;;17.60;;
66402;SDS011;53212;52.112;5.144;2022-12-18T06:17:31;27.70;;;18.00;;
66402;SDS011;53212;52.112;5.144;2022-12-18T06:19:58;25.50;;;17.80;;
66402;SDS011;53212;52.112;5.144;2022-12-18T06:22:24;27.70;;;16.90;;
66402;SDS011;53212;52.112;5.144;2022-12-18T06:24:50;26.00;;;17.30;;
66402;SDS011;53212;52.112;5.144;2022-12-18T06:27:15;25.50;;;16.80;;
66402;SDS011;53212;52.112;5.144;2022-12-18T06:29:41;24.30;;;16.70;;
66402;SDS011;53212;52.112;5.144;2022-12-18T06:32:06;24.10;;;16.80;;
66402;SDS011;53212;52.112;5.144;2022-12-18T06:34:32;26.00;;;17.40;;
66402;SDS011;53212;52.112;5.144;2022-12-18T06:36:58;25.90;;;16.20;;
66402;SDS011;53212;52.112;5.144;2022-12-18T06:39:24;25.20;;;16.30;;
66402;SDS011;53212;52.112;5.144;2022-12-18T06:41:52;24.10;;;17.40;;
66402;SDS011;53212;52.112;5.144;2022-12-18T06:44:18;20.80;;;15.10;;
66402;SDS011;53212;52.112;5.144;2022-12-18T06:46:43;26.30;;;17.40;;
66402;SDS011;53212;52.112;5.144;2022-12-18T06:49:09;29.70;;;17.40;;
66402;SDS011;53212;52.112;5.144;2022-12-18T06:51:34;26.10;;;17.20;;
66402;SDS011;53212;52.112;5.144;2022-12-18T06:54:00;23.60;;;15.70;;
66402;SDS011;53212;52.112;5.144;2022-12-18T06:56:26;23.80;;;16.10;;
66402;SDS011;53212;52.112;5.144;2022-12-18T06:58:52;25.10;;;16.70;;
66402;SDS011;53212;52.112;5.144;2022-12-18T07:01:17;24.90;;;15.50;;
66402;SDS011;53212;52.112;5.144;2022-12-18T07:03:43;24.40;;;15.90;;
66402;SDS011;53212;52.112;5.144;2022-12-18T07:06:16;23.80;;;16.10;;
66402;SDS011;53212;52.112;5.144;2022-12-18T07:08:44;25.00;;;15.60;;
66402;SDS011;53212;52.112;5.144;2022-12-18T07:11:11;23.80;;;15.90;;
66402;SDS011;53212;52.112;5.144;2022-12-18T07:13:37;25.10;;;17.50;;
66402;SDS011;53212;52.112;5.144;2022-12-18T07:16:13;27.50;;;17.00;;
66402;SDS011;53212;52.112;5.144;2022-12-18T07:18:40;23.70;;;16.00;;
66402;SDS011;53212;52.112;5.144;2022-12-18T07:21:07;24.40;;;16.50;;
66402;SDS011;53212;52.112;5.144;2022-12-18T07:23:35;26.70;;;17.00;;
66402;SDS011;53212;52.112;5.144;2022-12-18T07:26:20;26.50;;;16.90;;
66402;SDS011;53212;52.112;5.144;2022-12-18T07:28:46;22.70;;;15.60;;
66402;SDS011;53212;52.112;5.144;2022-12-18T07:31:15;22.40;;;15.30;;
66402;SDS011;53212;52.112;5.144;2022-12-18T07:33:44;22.50;;;15.20;;
66402;SDS011;53212;52.112;5.144;2022-12-18T07:36:10;23.30;;;15.90;;
66402;SDS011;53212;52.112;5.144;2022-12-18T07:38:36;24.30;;;16.60;;
66402;SDS011;53212;52.112;5.144;2022-12-18T07:41:09;24.10;;;16.90;;
66402;SDS011;53212;52.112;5.144;2022-12-18T07:43:37;22.10;;;16.20;;
66402;SDS011;53212;52.112;5.144;2022-12-18T07:46:03;23.00;;;16.00;;
66402;SDS011;53212;52.112;5.144;2022-12-18T07:48:29;23.00;;;15.70;;
66402;SDS011;53212;52.112;5.144;2022-12-18T07:51:04;24.00;;;16.50;;
66402;SDS011;53212;52.112;5.144;2022-12-18T07:53:32;21.70;;;15.20;;
66402;SDS011;53212;52.112;5.144;2022-12-18T07:56:02;23.00;;;15.70;;
66402;SDS011;53212;52.112;5.144;2022-12-18T07:58:30;21.70;;;16.50;;
66402;SDS011;53212;52.112;5.144;2022-12-18T08:01:10;25.20;;;16.30;;
66402;SDS011;53212;52.112;5.144;2022-12-18T08:03:37;23.60;;;15.30;;
66402;SDS011;53212;52.112;5.144;2022-12-18T08:06:06;21.10;;;14.90;;
66402;SDS011;53212;52.112;5.144;2022-12-18T08:08:34;20.20;;;14.70;;
66402;SDS011;53212;52.112;5.144;2022-12-18T08:11:00;20.60;;;15.10;;
66402;SDS011;53212;52.112;5.144;2022-12-18T08:13:26;22.20;;;15.60;;
66402;SDS011;53212;52.112;5.144;2022-12-18T08:15:59;19.00;;;14.50;;
66402;SDS011;53212;52.112;5.144;2022-12-18T08:18:29;21.30;;;15.30;;
66402;SDS011;53212;52.112;5.144;2022-12-18T08:20:55;23.30;;;15.90;;
66402;SDS011;53212;52.112;5.144;2022-12-18T08:23:21;20.40;;;13.90;;
66402;SDS011;53212;52.112;5.144;2022-12-18T08:25:46;19.40;;;14.30;;
66402;SDS011;53212;52.112;5.144;2022-12-18T08:28:12;21.80;;;16.10;;
66402;SDS011;53212;52.112;5.144;2022-12-18T08:30:38;22.50;;;16.10;;
66402;SDS011;53212;52.112;5.144;2022-12-18T08:33:03;21.30;;;15.40;;
66402;SDS011;53212;52.112;5.144;2022-12-18T08:35:29;20.10;;;15.00;;
66402;SDS011;53212;52.112;5.144;2022-12-18T08:37:55;20.60;;;14.70;;
66402;SDS011;53212;52.112;5.144;2022-12-18T08:40:20;23.00;;;15.80;;
66402;SDS011;53212;52.112;5.144;2022-12-18T08:42:45;22.10;;;15.20;;
66402;SDS011;53212;52.112;5.144;2022-12-18T08:45:29;20.50;;;14.50;;
66402;SDS011;53212;52.112;5.144;2022-12-18T08:47:55;22.60;;;15.50;;
66402;SDS011;53212;52.112;5.144;2022-12-18T08:50:20;18.70;;;13.90;;
66402;SDS011;53212;52.112;5.144;2022-12-18T08:52:46;20.50;;;15.10;;
66402;SDS011;53212;52.112;5.144;2022-12-18T08:55:11;19.50;;;14.20;;
66402;SDS011;53212;52.112;5.144;2022-12-18T08:57:37;19.10;;;14.30;;
66402;SDS011;53212;52.112;5.144;2022-12-18T09:00:03;22.90;;;15.20;;
66402;SDS011;53212;52.112;5.144;2022-12-18T09:02:29;20.20;;;15.00;;
66402;SDS011;53212;52.112;5.144;2022-12-18T09:04:55;18.40;;;13.90;;
66402;SDS011;53212;52.112;5.144;2022-12-18T09:07:20;18.10;;;14.20;;
66402;SDS011;53212;52.112;5.144;2022-12-18T09:09:45;18.40;;;13.80;;
66402;SDS011;53212;52.112;5.144;2022-12-18T09:12:11;20.00;;;14.50;;
66402;SDS011;53212;52.112;5.144;2022-12-18T09:14:37;17.00;;;13.00;;
66402;SDS011;53212;52.112;5.144;2022-12-18T09:17:02;18.90;;;14.50;;
66402;SDS011;53212;52.112;5.144;2022-12-18T09:19:28;19.40;;;14.10;;
66402;SDS011;53212;52.112;5.144;2022-12-18T09:21:53;19.60;;;14.00;;
66402;SDS011;53212;52.112;5.144;2022-12-18T09:24:18;18.30;;;13.30;;
66402;SDS011;53212;52.112;5.144;2022-12-18T09:26:44;18.10;;;13.40;;
66402;SDS011;53212;52.112;5.144;2022-12-18T09:29:09;17.70;;;14.00;;
66402;SDS011;53212;52.112;5.144;2022-12-18T09:31:35;17.40;;;13.40;;
66402;SDS011;53212;52.112;5.144;2022-12-18T09:34:01;17.20;;;12.90;;
66402;SDS011;53212;52.112;5.144;2022-12-18T09:36:27;18.00;;;14.00;;
66402;SDS011;53212;52.112;5.144;2022-12-18T09:38:52;17.40;;;13.40;;
66402;SDS011;53212;52.112;5.144;2022-12-18T09:44:19;19.70;;;14.20;;
66402;SDS011;53212;52.112;5.144;2022-12-18T09:47:10;17.50;;;13.70;;
66402;SDS011;53212;52.112;5.144;2022-12-18T09:49:43;21.00;;;14.50;;
66402;SDS011;53212;52.112;5.144;2022-12-18T09:55:26;19.20;;;13.80;;
66402;SDS011;53212;52.112;5.144;2022-12-18T09:58:00;17.50;;;13.80;;
66402;SDS011;53212;52.112;5.144;2022-12-18T10:00:52;19.10;;;13.50;;
66402;SDS011;53212;52.112;5.144;2022-12-18T10:03:19;19.20;;;14.00;;
66402;SDS011;53212;52.112;5.144;2022-12-18T10:09:31;18.60;;;14.30;;
66402;SDS011;53212;52.112;5.144;2022-12-18T10:12:14;18.60;;;14.10;;
66402;SDS011;53212;52.112;5.144;2022-12-18T10:18:02;19.50;;;14.10;;
66402;SDS011;53212;52.112;5.144;2022-12-18T10:20:47;18.60;;;13.00;;
66402;SDS011;53212;52.112;5.144;2022-12-18T10:23:25;18.10;;;13.10;;
66402;SDS011;53212;52.112;5.144;2022-12-18T10:28:26;18.40;;;13.60;;
66402;SDS011;53212;52.112;5.144;2022-12-18T10:30:54;18.80;;;13.70;;
66402;SDS011;53212;52.112;5.144;2022-12-18T10:33:22;16.90;;;13.20;;
66402;SDS011;53212;52.112;5.144;2022-12-18T10:35:50;18.10;;;12.70;;
66402;SDS011;53212;52.112;5.144;2022-12-18T10:40:49;19.40;;;13.20;;
66402;SDS011;53212;52.112;5.144;2022-12-18T10:43:15;18.20;;;13.50;;
66402;SDS011;53212;52.112;5.144;2022-12-18T10:48:59;17.10;;;13.80;;
66402;SDS011;53212;52.112;5.144;2022-12-18T10:51:30;20.10;;;15.20;;
66402;SDS011;53212;52.112;5.144;2022-12-18T10:54:04;19.50;;;15.00;;
66402;SDS011;53212;52.112;5.144;2022-12-18T10:56:38;19.40;;;16.60;;
66402;SDS011;53212;52.112;5.144;2022-12-18T10:59:11;20.60;;;16.70;;
66402;SDS011;53212;52.112;5.144;2022-12-18T11:01:55;25.00;;;20.30;;
66402;SDS011;53212;52.112;5.144;2022-12-18T11:04:30;23.90;;;17.60;;
66402;SDS011;53212;52.112;5.144;2022-12-18T11:07:04;26.30;;;20.00;;
66402;SDS011;53212;52.112;5.144;2022-12-18T11:09:36;24.20;;;18.40;;
66402;SDS011;53212;52.112;5.144;2022-12-18T11:12:18;36.30;;;28.50;;
66402;SDS011;53212;52.112;5.144;2022-12-18T11:14:49;22.90;;;16.00;;
66402;SDS011;53212;52.112;5.144;2022-12-18T11:20:00;34.80;;;22.80;;
66402;SDS011;53212;52.112;5.144;2022-12-18T11:22:33;27.70;;;19.60;;
66402;SDS011;53212;52.112;5.144;2022-12-18T11:25:27;26.90;;;17.80;;
66402;SDS011;53212;52.112;5.144;2022-12-18T11:28:02;60.20;;;36.00;;
66402;SDS011;53212;52.112;5.144;2022-12-18T11:36:37;18.70;;;15.00;;
66402;SDS011;53212;52.112;5.144;2022-12-18T11:39:12;15.60;;;12.40;;
66402;SDS011;53212;52.112;5.144;2022-12-18T11:42:02;19.20;;;16.60;;
66402;SDS011;53212;52.112;5.144;2022-12-18T11:44:50;18.00;;;14.10;;
66402;SDS011;53212;52.112;5.144;2022-12-18T11:50:10;17.50;;;12.50;;
66402;SDS011;53212;52.112;5.144;2022-12-18T11:52:41;19.10;;;13.00;;
66402;SDS011;53212;52.112;5.144;2022-12-18T11:55:14;18.30;;;13.90;;
66402;SDS011;53212;52.112;5.144;2022-12-18T12:00:55;17.10;;;13.20;;
66402;SDS011;53212;52.112;5.144;2022-12-18T12:03:45;18.20;;;13.20;;
66402;SDS011;53212;52.112;5.144;2022-12-18T12:06:35;16.30;;;13.10;;
66402;SDS011;53212;52.112;5.144;2022-12-18T12:09:27;17.70;;;14.20;;
66402;SDS011;53212;52.112;5.144;2022-12-18T12:14:57;17.90;;;14.40;;
66402;SDS011;53212;52.112;5.144;2022-12-18T12:17:38;16.40;;;12.90;;
66402;SDS011;53212;52.112;5.144;2022-12-18T12:21:09;17.90;;;12.80;;
66402;SDS011;53212;52.112;5.144;2022-12-18T12:26:28;17.20;;;12.80;;
66402;SDS011;53212;52.112;5.144;2022-12-18T12:41:03;40.60;;;30.60;;
66402;SDS011;53212;52.112;5.144;2022-12-18T12:43:44;18.70;;;15.00;;
66402;SDS011;53212;52.112;5.144;2022-12-18T12:46:16;20.90;;;14.90;;
66402;SDS011;53212;52.112;5.144;2022-12-18T12:48:52;19.50;;;14.20;;
66402;SDS011;53212;52.112;5.144;2022-12-18T12:51:25;19.80;;;14.30;;
66402;SDS011;53212;52.112;5.144;2022-12-18T12:53:55;21.70;;;15.80;;
66402;SDS011;53212;52.112;5.144;2022-12-18T12:56:22;18.90;;;14.40;;
66402;SDS011;53212;52.112;5.144;2022-12-18T12:59:04;18.50;;;13.90;;
66402;SDS011;53212;52.112;5.144;2022-12-18T13:01:43;17.90;;;13.50;;
66402;SDS011;53212;52.112;5.144;2022-12-18T13:04:22;27.40;;;19.20;;
66402;SDS011;53212;52.112;5.144;2022-12-18T13:07:20;19.70;;;15.20;;
66402;SDS011;53212;52.112;5.144;2022-12-18T13:13:10;21.70;;;15.30;;
66402;SDS011;53212;52.112;5.144;2022-12-18T13:15:46;20.90;;;14.50;;
66402;SDS011;53212;52.112;5.144;2022-12-18T13:18:20;18.60;;;14.10;;
66402;SDS011;53212;52.112;5.144;2022-12-18T13:34:25;19.80;;;13.40;;
66402;SDS011;53212;52.112;5.144;2022-12-18T13:36:53;18.50;;;14.10;;
66402;SDS011;53212;52.112;5.144;2022-12-18T13:42:31;18.30;;;13.70;;
66402;SDS011;53212;52.112;5.144;2022-12-18T13:44:59;18.10;;;13.10;;
66402;SDS011;53212;52.112;5.144;2022-12-18T13:47:33;21.40;;;14.40;;
66402;SDS011;53212;52.112;5.144;2022-12-18T13:50:10;19.60;;;13.90;;
66402;SDS011;53212;52.112;5.144;2022-12-18T13:52:47;18.90;;;14.60;;
66402;SDS011;53212;52.112;5.144;2022-12-18T13:55:17;16.10;;;13.30;;
66402;SDS011;53212;52.112;5.144;2022-12-18T13:57:44;17.00;;;12.50;;
66402;SDS011;53212;52.112;5.144;2022-12-18T14:02:54;18.70;;;13.80;;
66402;SDS011;53212;52.112;5.144;2022-12-18T14:05:25;20.20;;;14.40;;
66402;SDS011;53212;52.112;5.144;2022-12-18T14:07:52;17.60;;;14.00;;
66402;SDS011;53212;52.112;5.144;2022-12-18T14:10:18;18.20;;;13.70;;
66402;SDS011;53212;52.112;5.144;2022-12-18T14:12:47;18.50;;;13.80;;
66402;SDS011;53212;52.112;5.144;2022-12-18T14:20:19;18.10;;;13.00;;
66402;SDS011;53212;52.112;5.144;2022-12-18T14:22:46;17.00;;;13.40;;
66402;SDS011;53212;52.112;5.144;2022-12-18T14:25:21;19.80;;;14.80;;
66402;SDS011;53212;52.112;5.144;2022-12-18T14:27:52;18.60;;;13.80;;
66402;SDS011;53212;52.112;5.144;2022-12-18T14:30:31;20.20;;;14.50;;
66402;SDS011;53212;52.112;5.144;2022-12-18T14:33:10;19.60;;;13.80;;
66402;SDS011;53212;52.112;5.144;2022-12-18T14:35:40;18.70;;;14.00;;
66402;SDS011;53212;52.112;5.144;2022-12-18T14:38:24;18.20;;;13.00;;
66402;SDS011;53212;52.112;5.144;2022-12-18T14:40:57;19.50;;;14.10;;
66402;SDS011;53212;52.112;5.144;2022-12-18T14:43:23;20.00;;;14.70;;
66402;SDS011;53212;52.112;5.144;2022-12-18T14:45:49;19.90;;;14.30;;
66402;SDS011;53212;52.112;5.144;2022-12-18T14:51:27;18.20;;;13.80;;
66402;SDS011;53212;52.112;5.144;2022-12-18T14:53:59;18.40;;;13.40;;
66402;SDS011;53212;52.112;5.144;2022-12-18T14:59:06;20.00;;;15.30;;
66402;SDS011;53212;52.112;5.144;2022-12-18T15:04:33;18.50;;;13.80;;
66402;SDS011;53212;52.112;5.144;2022-12-18T15:09:44;20.10;;;15.50;;
66402;SDS011;53212;52.112;5.144;2022-12-18T15:12:36;32.90;;;14.70;;
66402;SDS011;53212;52.112;5.144;2022-12-18T15:15:02;20.00;;;14.80;;
66402;SDS011;53212;52.112;5.144;2022-12-18T15:17:29;20.00;;;14.30;;
66402;SDS011;53212;52.112;5.144;2022-12-18T15:20:03;23.30;;;16.00;;
66402;SDS011;53212;52.112;5.144;2022-12-18T15:22:35;20.70;;;15.10;;
66402;SDS011;53212;52.112;5.144;2022-12-18T15:25:03;24.80;;;15.90;;
66402;SDS011;53212;52.112;5.144;2022-12-18T15:27:50;22.80;;;14.70;;
66402;SDS011;53212;52.112;5.144;2022-12-18T15:30:18;21.00;;;14.70;;
66402;SDS011;53212;52.112;5.144;2022-12-18T15:32:46;20.60;;;15.40;;
66402;SDS011;53212;52.112;5.144;2022-12-18T15:35:22;21.80;;;15.00;;
66402;SDS011;53212;52.112;5.144;2022-12-18T15:37:50;21.10;;;15.70;;
66402;SDS011;53212;52.112;5.144;2022-12-18T15:40:21;20.40;;;15.60;;
66402;SDS011;53212;52.112;5.144;2022-12-18T15:42:51;20.00;;;15.10;;
66402;SDS011;53212;52.112;5.144;2022-12-18T15:45:37;21.20;;;16.00;;
66402;SDS011;53212;52.112;5.144;2022-12-18T15:48:21;22.10;;;16.30;;
66402;SDS011;53212;52.112;5.144;2022-12-18T15:50:49;21.40;;;15.50;;
66402;SDS011;53212;52.112;5.144;2022-12-18T15:53:16;24.30;;;16.30;;
66402;SDS011;53212;52.112;5.144;2022-12-18T15:55:41;20.70;;;15.90;;
66402;SDS011;53212;52.112;5.144;2022-12-18T15:58:25;21.40;;;15.30;;
66402;SDS011;53212;52.112;5.144;2022-12-18T16:00:50;22.10;;;16.20;;
66402;SDS011;53212;52.112;5.144;2022-12-18T16:03:16;20.60;;;16.20;;
66402;SDS011;53212;52.112;5.144;2022-12-18T16:05:42;21.30;;;15.50;;
66402;SDS011;53212;52.112;5.144;2022-12-18T16:08:07;21.90;;;15.80;;
66402;SDS011;53212;52.112;5.144;2022-12-18T16:10:33;23.00;;;16.20;;
66402;SDS011;53212;52.112;5.144;2022-12-18T16:12:59;23.40;;;15.90;;
66402;SDS011;53212;52.112;5.144;2022-12-18T16:15:25;22.00;;;16.40;;
66402;SDS011;53212;52.112;5.144;2022-12-18T16:17:51;20.70;;;14.40;;
66402;SDS011;53212;52.112;5.144;2022-12-18T16:20:18;21.60;;;16.10;;
66402;SDS011;53212;52.112;5.144;2022-12-18T16:22:47;23.40;;;16.70;;
66402;SDS011;53212;52.112;5.144;2022-12-18T16:27:45;24.10;;;17.00;;
66402;SDS011;53212;52.112;5.144;2022-12-18T16:30:19;26.50;;;18.30;;
66402;SDS011;53212;52.112;5.144;2022-12-18T16:32:56;22.70;;;16.40;;
66402;SDS011;53212;52.112;5.144;2022-12-18T16:35:25;23.20;;;15.90;;
66402;SDS011;53212;52.112;5.144;2022-12-18T16:37:51;22.30;;;16.80;;
66402;SDS011;53212;52.112;5.144;2022-12-18T16:40:17;20.90;;;16.20;;
66402;SDS011;53212;52.112;5.144;2022-12-18T16:42:44;25.60;;;17.70;;